Time;durP1;ratioP1;P1;durP2;ratioP2;P2;SDS_P1;SDS_P2;PMS_P1;PMS_P2;Temp;Humidity;BMP_temperature;BMP_pressure;BME280_temperature;BME280_humidity;BME280_pressure;Samples;Min_cycle;Max_cycle;Signal;HPM_P1;HPM_P2
2022/09/27 00:01:50;;;;;;;;;;;19.60;70.50;;;;;;4514958;31;20031;-65
2022/09/27 00:04:16;;;;;;;;;;;19.60;70.50;;;;;;4527868;31;20040;-64
2022/09/27 00:06:41;;;;;;;;;;;19.60;70.50;;;;;;4515188;31;20037;-64
2022/09/27 00:09:08;;;;;;;;;;;19.60;70.50;;;;;;4515214;31;20036;-64
2022/09/27 00:11:35;;;;;;;;;;;19.60;70.50;;;;;;4515880;31;20024;-64
2022/09/27 00:14:02;;;;;;;;;;;19.50;70.50;;;;;;4513601;31;20386;-64
2022/09/27 00:16:29;;;;;;;;;;;19.50;70.50;;;;;;4516208;31;20129;-64
2022/09/27 00:18:59;;;;;;;;;;;19.50;70.50;;;;;;4514831;31;20044;-64
2022/09/27 00:21:25;;;;;;;;;;;19.50;70.50;;;;;;4498632;31;20029;-64
2022/09/27 00:23:55;;;;;;;;;;;19.50;70.50;;;;;;4509197;31;20033;-64
2022/09/27 00:26:21;;;;;;;;;;;19.50;70.40;;;;;;4514900;31;20029;-64
2022/09/27 00:28:47;;;;;;;;;;;19.50;70.50;;;;;;4515625;31;20025;-64
2022/09/27 00:31:28;;;;;;;;;;;19.50;70.40;;;;;;4513531;31;20209;-64
2022/09/27 00:33:54;;;;;;;;;;;19.50;70.40;;;;;;4515349;31;20091;-65
2022/09/27 00:36:20;;;;;;;;;;;19.50;70.40;;;;;;4514597;31;20035;-64
2022/09/27 00:38:46;;;;;;;;;;;19.50;70.30;;;;;;4515077;31;20454;-64
2022/09/27 00:41:16;;;;;;;;;;;19.50;70.30;;;;;;4514894;31;20074;-64
2022/09/27 00:43:49;;;;;;;;;;;19.50;70.30;;;;;;4514727;31;20033;-64
2022/09/27 00:46:25;;;;;;;;;;;19.50;70.30;;;;;;4515571;31;20401;-64
2022/09/27 00:48:58;;;;;;;;;;;19.50;70.30;;;;;;4498846;31;20183;-64
2022/09/27 00:51:24;;;;;;;;;;;19.50;70.20;;;;;;4510530;31;20039;-64
2022/09/27 00:53:53;;;;;;;;;;;19.50;70.20;;;;;;4514739;31;20021;-64
2022/09/27 00:56:20;;;;;;;;;;;19.50;71.00;;;;;;4514410;31;20063;-64
2022/09/27 00:59:15;;;;;;;;;;;19.50;70.20;;;;;;4514700;31;20054;-64
2022/09/27 01:01:41;;;;;;;;;;;19.40;70.10;;;;;;4503363;31;20036;-65
2022/09/27 01:04:11;;;;;;;;;;;19.40;70.10;;;;;;4514991;31;20056;-64
2022/09/27 01:06:37;;;;;;;;;;;19.40;70.20;;;;;;4514249;31;20105;-64
2022/09/27 01:09:04;;;;;;;;;;;19.40;70.10;;;;;;4514361;31;20036;-64
2022/09/27 01:11:42;;;;;;;;;;;19.40;70.10;;;;;;4514965;31;20036;-64
2022/09/27 01:14:31;;;;;;;;;;;19.40;70.10;;;;;;4513968;31;20052;-64
2022/09/27 01:17:06;;;;;;;;;;;19.40;70.10;;;;;;4514731;31;20134;-65
2022/09/27 01:19:35;;;;;;;;;;;19.40;70.00;;;;;;4514321;31;20421;-64
2022/09/27 01:22:04;;;;;;;;;;;19.40;70.00;;;;;;4514044;31;20040;-64
2022/09/27 01:24:50;;;;;;;;;;;19.40;70.10;;;;;;4514734;31;20028;-65
2022/09/27 01:27:35;;;;;;;;;;;19.40;70.00;;;;;;4513632;31;20033;-65
2022/09/27 01:30:16;;;;;;;;;;;19.40;70.00;;;;;;4498522;31;20045;-65
2022/09/27 01:32:42;;;;;;;;;;;19.40;70.00;;;;;;4509887;31;20037;-64
2022/09/27 01:35:19;;;;;;;;;;;19.40;70.00;;;;;;4513838;31;20047;-65
2022/09/27 01:38:04;;;;;;;;;;;19.40;70.00;;;;;;4514812;31;20052;-64
2022/09/27 01:40:33;;;;;;;;;;;19.40;70.00;;;;;;4513731;31;20044;-64
2022/09/27 01:43:19;;;;;;;;;;;19.40;70.00;;;;;;4514069;31;20028;-64
2022/09/27 01:45:47;;;;;;;;;;;19.30;69.90;;;;;;4513938;31;20036;-64
2022/09/27 01:48:21;;;;;;;;;;;19.30;70.00;;;;;;4513522;31;20029;-64
2022/09/27 01:50:50;;;;;;;;;;;19.30;69.90;;;;;;4509302;31;20185;-65
2022/09/27 01:53:36;;;;;;;;;;;19.30;69.90;;;;;;4510985;31;20037;-64
2022/09/27 01:56:03;;;;;;;;;;;19.30;70.00;;;;;;4513756;31;20032;-64
2022/09/27 01:58:36;;;;;;;;;;;19.30;69.90;;;;;;4507638;31;20547;-65
2022/09/27 02:01:02;;;;;;;;;;;19.30;69.90;;;;;;4497420;31;20162;-65
2022/09/27 02:03:35;;;;;;;;;;;19.30;69.90;;;;;;4497294;31;20113;-65
2022/09/27 02:06:10;;;;;;;;;;;19.30;69.90;;;;;;4507769;31;20106;-65
2022/09/27 02:08:36;;;;;;;;;;;19.30;69.90;;;;;;4512558;31;20032;-65
2022/09/27 02:11:04;;;;;;;;;;;19.30;69.90;;;;;;4512994;31;20013;-65
2022/09/27 02:13:37;;;;;;;;;;;19.30;69.90;;;;;;4513310;31;20428;-65
2022/09/27 02:16:19;;;;;;;;;;;19.30;69.90;;;;;;4513362;31;20036;-65
2022/09/27 02:18:55;;;;;;;;;;;19.30;69.90;;;;;;4512994;31;20059;-65
2022/09/27 02:21:24;;;;;;;;;;;19.30;69.90;;;;;;4512694;31;20028;-65
2022/09/27 02:23:52;;;;;;;;;;;19.30;69.80;;;;;;4525427;31;20044;-65
2022/09/27 02:26:23;;;;;;;;;;;19.30;69.90;;;;;;4509242;31;20123;-64
2022/09/27 02:29:10;;;;;;;;;;;19.30;69.80;;;;;;4501043;31;20025;-65
2022/09/27 02:31:36;;;;;;;;;;;19.30;69.80;;;;;;4513019;31;20029;-65
2022/09/27 02:34:05;;;;;;;;;;;19.30;69.90;;;;;;4513614;31;20036;-65
2022/09/27 02:36:31;;;;;;;;;;;19.30;69.80;;;;;;4513061;31;20246;-64
2022/09/27 02:38:57;;;;;;;;;;;19.30;69.90;;;;;;4512068;31;20040;-64
2022/09/27 02:41:22;;;;;;;;;;;19.30;69.90;;;;;;4513679;31;20143;-64
2022/09/27 02:43:58;;;;;;;;;;;19.30;69.90;;;;;;4512666;31;20040;-65
2022/09/27 02:46:32;;;;;;;;;;;19.20;69.80;;;;;;4514125;31;20462;-64
2022/09/27 02:48:57;;;;;;;;;;;19.30;69.90;;;;;;4512013;31;20490;-65
2022/09/27 02:51:33;;;;;;;;;;;19.20;69.80;;;;;;4513244;31;20482;-64
2022/09/27 02:54:02;;;;;;;;;;;19.20;69.80;;;;;;4512050;31;20036;-64
2022/09/27 02:56:28;;;;;;;;;;;19.20;69.80;;;;;;4512710;31;20039;-65
2022/09/27 02:59:04;;;;;;;;;;;19.20;69.80;;;;;;4513796;31;20025;-65
2022/09/27 03:01:30;;;;;;;;;;;19.20;69.80;;;;;;4511257;31;20130;-65
2022/09/27 03:04:06;;;;;;;;;;;19.20;69.80;;;;;;4513539;31;20151;-64
2022/09/27 03:06:33;;;;;;;;;;;19.20;69.80;;;;;;4512644;31;20078;-66
2022/09/27 03:08:58;;;;;;;;;;;19.20;70.70;;;;;;4512904;31;20032;-65
2022/09/27 03:11:24;;;;;;;;;;;19.20;69.80;;;;;;4513262;31;20017;-66
2022/09/27 03:13:50;;;;;;;;;;;19.20;69.80;;;;;;4512715;31;20134;-65
2022/09/27 03:16:16;;;;;;;;;;;19.20;69.80;;;;;;4513768;31;20143;-65
2022/09/27 03:18:41;;;;;;;;;;;19.20;69.80;;;;;;4524631;31;20013;-65
2022/09/27 03:21:07;;;;;;;;;;;19.20;69.80;;;;;;4513139;31;20086;-64
2022/09/27 03:23:33;;;;;;;;;;;19.20;69.80;;;;;;4515642;31;20028;-64
2022/09/27 03:25:58;;;;;;;;;;;19.20;69.80;;;;;;4516138;31;20032;-64
2022/09/27 03:28:24;;;;;;;;;;;19.20;69.80;;;;;;4515174;31;20469;-64
2022/09/27 03:30:50;;;;;;;;;;;19.20;69.80;;;;;;4515792;31;20032;-64
2022/09/27 03:33:16;;;;;;;;;;;19.20;69.80;;;;;;4516788;31;20021;-65
2022/09/27 03:35:42;;;;;;;;;;;19.20;69.80;;;;;;4515229;31;20032;-65
2022/09/27 03:38:08;;;;;;;;;;;19.20;69.80;;;;;;4515412;31;20029;-64
2022/09/27 03:40:35;;;;;;;;;;;19.20;69.80;;;;;;4515610;31;20156;-64
2022/09/27 03:43:00;;;;;;;;;;;19.20;69.80;;;;;;4515909;31;20163;-64
2022/09/27 03:45:26;;;;;;;;;;;19.20;70.70;;;;;;4515808;31;20458;-64
2022/09/27 03:47:53;;;;;;;;;;;19.10;69.70;;;;;;4515224;31;20451;-64
2022/09/27 03:50:18;;;;;;;;;;;19.10;69.80;;;;;;4516351;31;20186;-64
2022/09/27 03:52:44;;;;;;;;;;;19.10;69.80;;;;;;4515273;31;20101;-65
2022/09/27 03:55:11;;;;;;;;;;;19.10;69.80;;;;;;4516056;31;20055;-64
2022/09/27 03:57:37;;;;;;;;;;;19.10;69.80;;;;;;4513067;31;20033;-64
2022/09/27 04:00:04;;;;;;;;;;;19.10;69.70;;;;;;4515662;31;20028;-64
2022/09/27 04:02:30;;;;;;;;;;;19.10;69.80;;;;;;4515439;31;20044;-65
2022/09/27 04:04:55;;;;;;;;;;;19.10;69.70;;;;;;4515300;31;20025;-64
2022/09/27 04:07:22;;;;;;;;;;;19.10;69.70;;;;;;4528085;31;20028;-64
2022/09/27 04:09:48;;;;;;;;;;;19.10;69.80;;;;;;4514774;31;20033;-64
2022/09/27 04:12:14;;;;;;;;;;;19.10;69.80;;;;;;4516333;31;20102;-64
2022/09/27 04:14:40;;;;;;;;;;;19.10;69.70;;;;;;4513917;31;20105;-64
2022/09/27 04:17:06;;;;;;;;;;;19.10;69.70;;;;;;4515429;31;20038;-65
2022/09/27 04:19:31;;;;;;;;;;;19.10;69.70;;;;;;4515179;31;20399;-65
2022/09/27 04:21:57;;;;;;;;;;;19.10;69.70;;;;;;4513888;31;20033;-64
2022/09/27 04:24:24;;;;;;;;;;;19.10;69.70;;;;;;4515933;31;20025;-64
2022/09/27 04:26:50;;;;;;;;;;;19.10;69.70;;;;;;4514633;31;20021;-64
2022/09/27 04:29:16;;;;;;;;;;;19.10;69.70;;;;;;4514966;31;20040;-64
2022/09/27 04:31:43;;;;;;;;;;;19.10;69.70;;;;;;4514659;31;20043;-65
2022/09/27 04:34:12;;;;;;;;;;;19.00;69.60;;;;;;4514630;31;20028;-64
2022/09/27 04:36:38;;;;;;;;;;;19.10;69.70;;;;;;4515016;31;20159;-64
2022/09/27 04:39:06;;;;;;;;;;;19.00;69.60;;;;;;4513890;31;20478;-64
2022/09/27 04:41:32;;;;;;;;;;;19.00;69.70;;;;;;4515360;31;20113;-64
2022/09/27 04:44:01;;;;;;;;;;;19.00;69.70;;;;;;4514309;31;20037;-64
2022/09/27 04:46:30;;;;;;;;;;;19.00;69.60;;;;;;4515713;31;20028;-64
2022/09/27 04:48:59;;;;;;;;;;;19.00;69.60;;;;;;4526368;31;20039;-64
2022/09/27 04:51:26;;;;;;;;;;;19.00;70.40;;;;;;4514799;31;20040;-64
2022/09/27 04:53:51;;;;;;;;;;;19.00;69.60;;;;;;4514783;31;20072;-64
2022/09/27 04:56:18;;;;;;;;;;;19.00;69.60;;;;;;4514549;31;20039;-64
2022/09/27 04:58:44;;;;;;;;;;;19.10;69.70;;;;;;4515347;31;20093;-64
2022/09/27 05:01:09;;;;;;;;;;;19.00;69.60;;;;;;4511416;31;20091;-64
2022/09/27 05:03:36;;;;;;;;;;;19.00;69.70;;;;;;4509395;31;20017;-65
2022/09/27 05:06:02;;;;;;;;;;;19.10;69.70;;;;;;4509903;31;20490;-64
2022/09/27 05:08:28;;;;;;;;;;;19.00;69.60;;;;;;4514364;31;20031;-64
2022/09/27 05:10:54;;;;;;;;;;;19.00;69.60;;;;;;4514070;31;20076;-64
2022/09/27 05:13:20;;;;;;;;;;;19.00;69.60;;;;;;4512810;31;20467;-64
2022/09/27 05:15:45;;;;;;;;;;;19.00;69.60;;;;;;4514435;31;20178;-66
2022/09/27 05:18:11;;;;;;;;;;;19.00;69.60;;;;;;4513362;31;20035;-64
2022/09/27 05:20:38;;;;;;;;;;;19.00;69.60;;;;;;4514795;31;20157;-64
2022/09/27 05:23:04;;;;;;;;;;;19.00;69.20;;;;;;4502309;31;20221;-64
2022/09/27 05:25:30;;;;;;;;;;;19.00;68.10;;;;;;4514484;31;20236;-64
2022/09/27 05:27:57;;;;;;;;;;;19.00;67.70;;;;;;4505320;31;20028;-65
2022/09/27 05:30:23;;;;;;;;;;;18.90;67.80;;;;;;4513571;31;20043;-64
2022/09/27 05:32:49;;;;;;;;;;;18.90;68.10;;;;;;4514121;31;20477;-64
2022/09/27 05:35:17;;;;;;;;;;;18.90;68.30;;;;;;4513296;31;20162;-64
2022/09/27 05:37:50;;;;;;;;;;;18.90;68.40;;;;;;4500242;31;20060;-64
2022/09/27 05:40:16;;;;;;;;;;;18.90;68.50;;;;;;4511415;31;20033;-64
2022/09/27 05:42:42;;;;;;;;;;;18.90;68.70;;;;;;4512659;31;20017;-64
2022/09/27 05:45:08;;;;;;;;;;;18.90;68.70;;;;;;4498083;31;20044;-64
2022/09/27 05:47:33;;;;;;;;;;;18.90;68.70;;;;;;4502632;31;20496;-63
2022/09/27 05:49:59;;;;;;;;;;;18.90;68.80;;;;;;4514456;31;20035;-64
2022/09/27 05:52:25;;;;;;;;;;;18.90;68.80;;;;;;4513062;31;20021;-64
2022/09/27 05:54:51;;;;;;;;;;;18.90;68.80;;;;;;4514679;31;20039;-64
2022/09/27 05:57:17;;;;;;;;;;;18.90;68.80;;;;;;4525202;31;20028;-64
2022/09/27 05:59:43;;;;;;;;;;;18.90;68.90;;;;;;4526348;31;20021;-64
2022/09/27 06:02:12;;;;;;;;;;;18.90;68.90;;;;;;4513696;31;20504;-64
2022/09/27 06:04:37;;;;;;;;;;;18.90;69.00;;;;;;4513403;31;20043;-64
2022/09/27 06:07:03;;;;;;;;;;;18.90;69.20;;;;;;4512741;31;20025;-64
2022/09/27 06:09:29;;;;;;;;;;;18.90;69.20;;;;;;4511965;31;20075;-63
2022/09/27 06:11:55;;;;;;;;;;;18.90;69.20;;;;;;4513443;31;20574;-64
2022/09/27 06:14:21;;;;;;;;;;;19.00;69.30;;;;;;4513231;31;20025;-65
2022/09/27 06:16:47;;;;;;;;;;;19.00;69.20;;;;;;4513699;31;20079;-65
2022/09/27 06:19:12;;;;;;;;;;;19.10;69.10;;;;;;4513437;31;20031;-66
2022/09/27 06:21:38;;;;;;;;;;;19.10;68.90;;;;;;4509352;31;20033;-65
2022/09/27 06:24:04;;;;;;;;;;;19.20;68.70;;;;;;4504433;31;20134;-65
2022/09/27 06:26:30;;;;;;;;;;;19.30;68.60;;;;;;4525062;31;20043;-66
2022/09/27 06:28:55;;;;;;;;;;;19.40;68.50;;;;;;4526538;31;20025;-64
2022/09/27 06:31:21;;;;;;;;;;;19.50;68.10;;;;;;4512841;31;20025;-64
2022/09/27 06:33:50;;;;;;;;;;;19.70;67.90;;;;;;4512686;31;20017;-65
2022/09/27 06:36:16;;;;;;;;;;;19.80;67.70;;;;;;4512812;31;20174;-64
2022/09/27 06:38:44;;;;;;;;;;;19.90;67.30;;;;;;4512733;31;20032;-66
2022/09/27 06:41:09;;;;;;;;;;;20.00;67.00;;;;;;4513302;31;20429;-65
2022/09/27 06:43:35;;;;;;;;;;;20.20;66.80;;;;;;4524962;31;20025;-65
2022/09/27 06:46:04;;;;;;;;;;;20.30;66.60;;;;;;4514011;31;20037;-62
2022/09/27 06:48:30;;;;;;;;;;;20.40;66.40;;;;;;4511585;31;20077;-63
2022/09/27 06:50:56;;;;;;;;;;;20.50;67.00;;;;;;4512415;31;20021;-65
2022/09/27 06:53:22;;;;;;;;;;;20.60;66.00;;;;;;4512982;31;20073;-63
2022/09/27 06:55:50;;;;;;;;;;;20.70;65.90;;;;;;4524908;31;20172;-65
2022/09/27 07:01:02;;;;;;;;;;;20.80;65.70;;;;;;4512463;31;20043;-75
2022/09/27 07:03:31;;;;;;;;;;;20.80;65.70;;;;;;4513756;31;20013;-72
2022/09/27 07:05:58;;;;;;;;;;;20.80;65.70;;;;;;4512288;31;20039;-70
2022/09/27 07:08:26;;;;;;;;;;;20.80;65.70;;;;;;4513278;31;20092;-72
2022/09/27 07:10:53;;;;;;;;;;;20.90;65.60;;;;;;4513049;31;20042;-74
2022/09/27 07:13:19;;;;;;;;;;;20.90;65.70;;;;;;4512614;31;20039;-70
2022/09/27 07:15:44;;;;;;;;;;;20.90;65.70;;;;;;4504646;31;20052;-70
2022/09/27 07:18:10;;;;;;;;;;;20.90;65.80;;;;;;4495693;31;20016;-70
2022/09/27 07:20:37;;;;;;;;;;;20.80;65.90;;;;;;4525862;31;20498;-71
2022/09/27 07:23:04;;;;;;;;;;;20.80;66.00;;;;;;4513061;31;20081;-71
2022/09/27 07:25:30;;;;;;;;;;;20.70;66.20;;;;;;4514346;31;20027;-71
2022/09/27 07:27:59;;;;;;;;;;;20.70;66.30;;;;;;4512741;31;20033;-71
2022/09/27 07:30:25;;;;;;;;;;;20.60;66.40;;;;;;4512433;31;20028;-70
2022/09/27 07:32:55;;;;;;;;;;;20.60;66.60;;;;;;4512244;31;20194;-71
2022/09/27 07:35:21;;;;;;;;;;;20.50;66.70;;;;;;4508180;31;20422;-67
2022/09/27 07:37:47;;;;;;;;;;;20.40;66.90;;;;;;4504423;31;20028;-73
2022/09/27 07:40:13;;;;;;;;;;;20.40;67.10;;;;;;4511712;31;20074;-75
2022/09/27 07:42:40;;;;;;;;;;;20.30;67.40;;;;;;4511569;31;20012;-67
2022/09/27 07:45:06;;;;;;;;;;;20.40;67.30;;;;;;4512536;31;20025;-72
2022/09/27 07:47:32;;;;;;;;;;;20.40;67.00;;;;;;4512397;31;20039;-70
2022/09/27 07:49:57;;;;;;;;;;;20.50;67.00;;;;;;4513041;31;20024;-72
2022/09/27 07:52:23;;;;;;;;;;;20.50;67.20;;;;;;4511299;31;20485;-68
2022/09/27 07:54:49;;;;;;;;;;;20.50;68.60;;;;;;4512990;31;20063;-68
2022/09/27 07:57:15;;;;;;;;;;;20.40;69.20;;;;;;4511645;31;20044;-70
2022/09/27 07:59:42;;;;;;;;;;;20.40;69.50;;;;;;4512652;31;20087;-70
2022/09/27 08:02:12;;;;;;;;;;;20.40;69.10;;;;;;4492600;31;22824;-70
2022/09/27 08:04:38;;;;;;;;;;;20.30;69.30;;;;;;4511377;31;20508;-69
2022/09/27 08:07:03;;;;;;;;;;;20.20;69.10;;;;;;4512176;31;20231;-68
2022/09/27 08:09:29;;;;;;;;;;;20.20;69.20;;;;;;4512671;31;20029;-71
2022/09/27 08:11:57;;;;;;;;;;;20.20;69.20;;;;;;4515824;31;20036;-74
2022/09/27 08:14:23;;;;;;;;;;;20.10;69.50;;;;;;4514490;31;20036;-72
2022/09/27 08:16:50;;;;;;;;;;;20.10;69.50;;;;;;4514223;31;20163;-72
2022/09/27 08:19:17;;;;;;;;;;;20.00;69.50;;;;;;4497697;31;20550;-69
2022/09/27 08:21:42;;;;;;;;;;;20.00;69.60;;;;;;4513280;31;20040;-74
2022/09/27 08:24:08;;;;;;;;;;;20.00;69.70;;;;;;4511653;31;20040;-69
2022/09/27 08:26:34;;;;;;;;;;;19.90;69.70;;;;;;4510137;31;20042;-74
2022/09/27 08:29:00;;;;;;;;;;;19.90;69.80;;;;;;4511487;31;20033;-71
2022/09/27 08:31:27;;;;;;;;;;;19.90;69.80;;;;;;4508486;31;20400;-70
2022/09/27 08:33:53;;;;;;;;;;;19.80;69.80;;;;;;4514951;31;20477;-72
2022/09/27 08:36:19;;;;;;;;;;;19.80;70.00;;;;;;4514329;31;20037;-73
2022/09/27 08:38:51;;;;;;;;;;;19.90;70.10;;;;;;4526394;31;20481;-72
2022/09/27 08:41:17;;;;;;;;;;;19.80;70.00;;;;;;4514792;31;20345;-74
2022/09/27 08:44:05;;;;;;;;;;;19.80;70.40;;;;;;4513903;31;20158;-72
2022/09/27 08:46:40;;;;;;;;;;;19.80;70.60;;;;;;4515074;31;20029;-75
2022/09/27 08:49:12;;;;;;;;;;;19.80;70.50;;;;;;4513967;31;20029;-75
2022/09/27 08:51:39;;;;;;;;;;;19.80;70.60;;;;;;4514548;31;20025;-74
2022/09/27 08:54:17;;;;;;;;;;;19.80;70.50;;;;;;4508306;31;20029;-75
2022/09/27 08:56:44;;;;;;;;;;;19.80;70.70;;;;;;4513284;31;20036;-71
2022/09/27 08:59:14;;;;;;;;;;;19.70;70.90;;;;;;4513023;31;20082;-74
2022/09/27 09:01:41;;;;;;;;;;;19.70;71.20;;;;;;4512830;31;20162;-73
2022/09/27 09:04:09;;;;;;;;;;;19.70;71.00;;;;;;4513361;31;20043;-71
2022/09/27 09:06:58;;;;;;;;;;;19.70;71.00;;;;;;4513687;31;20057;-69
2022/09/27 09:09:43;;;;;;;;;;;19.70;71.40;;;;;;4507466;31;20096;-68
2022/09/27 09:15:11;;;;;;;;;;;19.70;71.90;;;;;;4513098;31;20048;-70
2022/09/27 09:17:56;;;;;;;;;;;19.70;71.80;;;;;;4513847;31;20090;-69
2022/09/27 09:20:48;;;;;;;;;;;19.60;71.70;;;;;;4514898;31;20057;-68
2022/09/27 09:23:33;;;;;;;;;;;19.60;71.80;;;;;;4512784;31;20060;-68
2022/09/27 09:26:21;;;;;;;;;;;19.70;71.80;;;;;;4513000;31;20044;-64
2022/09/27 09:28:58;;;;;;;;;;;19.60;71.70;;;;;;4480413;31;20183;-69
2022/09/27 09:31:43;;;;;;;;;;;19.60;72.00;;;;;;4511413;31;20051;-74
2022/09/27 09:34:08;;;;;;;;;;;19.60;72.00;;;;;;4512288;31;20036;-68
2022/09/27 09:36:43;;;;;;;;;;;19.60;71.90;;;;;;4513175;31;20044;-67
2022/09/27 09:39:15;;;;;;;;;;;19.60;71.90;;;;;;4513524;31;20036;-72
2022/09/27 09:42:00;;;;;;;;;;;19.60;71.80;;;;;;4514200;31;20086;-67
2022/09/27 09:44:29;;;;;;;;;;;19.60;71.90;;;;;;4513467;31;20033;-70
2022/09/27 09:46:57;;;;;;;;;;;19.60;71.90;;;;;;4514098;31;20049;-69
2022/09/27 09:49:23;;;;;;;;;;;19.60;71.50;;;;;;4513649;31;20182;-70
2022/09/27 09:51:51;;;;;;;;;;;19.60;71.00;;;;;;4513050;31;20024;-71
2022/09/27 09:54:32;;;;;;;;;;;19.70;70.70;;;;;;4514135;31;20037;-68
2022/09/27 09:57:02;;;;;;;;;;;19.70;70.70;;;;;;4512790;31;20032;-69
2022/09/27 09:59:36;;;;;;;;;;;19.80;70.70;;;;;;4509922;31;20186;-68
2022/09/27 10:02:21;;;;;;;;;;;19.80;70.50;;;;;;4505488;31;20064;-68
2022/09/27 10:04:47;;;;;;;;;;;19.90;70.40;;;;;;4513118;31;20114;-67
2022/09/27 10:07:14;;;;;;;;;;;20.00;70.30;;;;;;4513814;31;20013;-67
2022/09/27 10:09:40;;;;;;;;;;;20.10;70.20;;;;;;4512422;31;20020;-69
2022/09/27 10:12:06;;;;;;;;;;;20.10;70.10;;;;;;4513799;31;20576;-69
2022/09/27 10:14:32;;;;;;;;;;;20.20;69.90;;;;;;4509819;31;20106;-68
2022/09/27 10:17:03;;;;;;;;;;;20.30;69.80;;;;;;4512747;31;20068;-68
2022/09/27 10:19:31;;;;;;;;;;;20.40;69.70;;;;;;4512590;31;20085;-68
2022/09/27 10:22:02;;;;;;;;;;;20.40;69.50;;;;;;4509252;31;20039;-69
2022/09/27 10:24:28;;;;;;;;;;;20.50;69.30;;;;;;4509797;31;20036;-68
2022/09/27 10:26:58;;;;;;;;;;;20.60;69.20;;;;;;4511891;31;20142;-68
2022/09/27 10:29:28;;;;;;;;;;;20.70;69.10;;;;;;4493930;31;33108;-69
2022/09/27 10:31:54;;;;;;;;;;;20.70;68.90;;;;;;4511577;31;20043;-68
2022/09/27 10:34:29;;;;;;;;;;;20.80;68.90;;;;;;4509902;31;20025;-68
2022/09/27 10:37:05;;;;;;;;;;;20.90;68.70;;;;;;4511325;31;20625;-68
2022/09/27 10:39:30;;;;;;;;;;;20.90;68.50;;;;;;4511804;31;20129;-67
2022/09/27 10:41:56;;;;;;;;;;;20.90;68.50;;;;;;4512921;31;20538;-67
2022/09/27 10:44:26;;;;;;;;;;;21.00;68.50;;;;;;4509752;31;20435;-67
2022/09/27 10:46:57;;;;;;;;;;;21.00;68.40;;;;;;4508829;31;20063;-68
2022/09/27 10:49:32;;;;;;;;;;;21.00;68.40;;;;;;4512335;31;20020;-68
2022/09/27 10:52:02;;;;;;;;;;;21.00;68.40;;;;;;4511731;31;20029;-69
2022/09/27 10:54:29;;;;;;;;;;;21.00;68.30;;;;;;4506859;31;20032;-69
2022/09/27 10:56:56;;;;;;;;;;;21.00;68.30;;;;;;4510711;31;20163;-69
2022/09/27 10:59:23;;;;;;;;;;;21.00;68.30;;;;;;4513206;31;20041;-69
2022/09/27 11:01:49;;;;;;;;;;;21.00;68.40;;;;;;4512340;31;20467;-68
2022/09/27 11:04:22;;;;;;;;;;;21.00;68.40;;;;;;4524597;31;20044;-69
2022/09/27 11:06:48;;;;;;;;;;;21.00;68.40;;;;;;4512659;31;20030;-68
2022/09/27 11:09:25;;;;;;;;;;;21.10;68.50;;;;;;4511309;31;20028;-69
2022/09/27 11:12:11;;;;;;;;;;;21.10;68.40;;;;;;4509640;31;20471;-69
2022/09/27 11:14:37;;;;;;;;;;;21.10;68.30;;;;;;4508410;31;20025;-68
2022/09/27 11:17:06;;;;;;;;;;;21.10;68.40;;;;;;4510939;31;20043;-68
2022/09/27 11:19:32;;;;;;;;;;;21.10;68.30;;;;;;4511808;31;20343;-71
2022/09/27 11:22:16;;;;;;;;;;;21.10;68.30;;;;;;4511577;31;20039;-70
2022/09/27 11:24:42;;;;;;;;;;;21.10;68.30;;;;;;4510728;31;20028;-69
2022/09/27 11:27:26;;;;;;;;;;;21.10;68.20;;;;;;4503886;31;20056;-77
2022/09/27 11:30:13;;;;;;;;;;;21.20;68.30;;;;;;4512391;31;20587;-69
2022/09/27 11:32:45;;;;;;;;;;;21.20;68.30;;;;;;4513218;31;20139;-72
2022/09/27 11:35:31;;;;;;;;;;;21.20;68.30;;;;;;4509888;31;20039;-72
2022/09/27 11:38:12;;;;;;;;;;;21.10;68.20;;;;;;4512706;31;20059;-71
2022/09/27 11:40:59;;;;;;;;;;;21.10;68.30;;;;;;4510860;31;20062;-71
2022/09/27 11:43:36;;;;;;;;;;;21.10;68.30;;;;;;4512823;31;20035;-71
2022/09/27 11:46:20;;;;;;;;;;;21.10;68.30;;;;;;4515087;31;20042;-69
2022/09/27 11:48:53;;;;;;;;;;;21.10;68.40;;;;;;4514136;31;20048;-69
2022/09/27 11:51:47;;;;;;;;;;;21.10;68.40;;;;;;4514584;31;20052;-69
2022/09/27 11:54:25;;;;;;;;;;;21.10;68.40;;;;;;4469672;31;20172;-68
2022/09/27 11:57:00;;;;;;;;;;;21.10;68.40;;;;;;4512972;31;20032;-70
2022/09/27 11:59:44;;;;;;;;;;;21.10;68.50;;;;;;4510607;31;20060;-67
2022/09/27 12:02:10;;;;;;;;;;;21.10;68.50;;;;;;4513690;31;20210;-67
2022/09/27 12:04:42;;;;;;;;;;;21.10;68.50;;;;;;4513441;31;20628;-66
2022/09/27 12:07:15;;;;;;;;;;;21.10;68.50;;;;;;4515350;31;20028;-67
2022/09/27 12:09:52;;;;;;;;;;;21.10;68.50;;;;;;4512895;31;20036;-68
2022/09/27 12:12:19;;;;;;;;;;;21.00;68.50;;;;;;4513977;31;20033;-66
2022/09/27 12:14:51;;;;;;;;;;;21.00;68.60;;;;;;4514448;31;20049;-66
2022/09/27 12:17:19;;;;;;;;;;;21.00;68.70;;;;;;4515026;31;20150;-68
2022/09/27 12:19:50;;;;;;;;;;;21.00;68.80;;;;;;4513086;31;20033;-67
2022/09/27 12:22:20;;;;;;;;;;;21.00;68.90;;;;;;4511050;31;20038;-65
2022/09/27 12:24:46;;;;;;;;;;;20.90;69.80;;;;;;4514799;31;20125;-68
2022/09/27 12:27:18;;;;;;;;;;;20.90;68.90;;;;;;4526239;31;20190;-67
2022/09/27 12:29:45;;;;;;;;;;;21.00;69.00;;;;;;4514125;31;20025;-67
2022/09/27 12:32:11;;;;;;;;;;;21.00;69.00;;;;;;4514400;31;20099;-67
2022/09/27 12:34:47;;;;;;;;;;;21.00;69.00;;;;;;4513703;31;20171;-67
2022/09/27 12:37:19;;;;;;;;;;;21.00;69.10;;;;;;4514461;31;20047;-66
2022/09/27 12:39:59;;;;;;;;;;;21.00;69.10;;;;;;4513483;31;20025;-66
2022/09/27 12:42:29;;;;;;;;;;;21.00;69.10;;;;;;4513437;31;20128;-66
2022/09/27 12:44:55;;;;;;;;;;;21.00;69.10;;;;;;4514214;31;20186;-66
2022/09/27 12:47:36;;;;;;;;;;;21.00;69.10;;;;;;4513401;31;20033;-67
2022/09/27 12:50:10;;;;;;;;;;;21.00;69.20;;;;;;4513655;31;20503;-67
2022/09/27 12:52:37;;;;;;;;;;;21.00;69.20;;;;;;4512091;31;20241;-68
2022/09/27 12:55:03;;;;;;;;;;;21.00;69.30;;;;;;4513069;31;20075;-68
2022/09/27 12:57:35;;;;;;;;;;;20.90;69.30;;;;;;4513154;31;20020;-69
2022/09/27 13:00:01;;;;;;;;;;;20.90;69.40;;;;;;4512879;31;20075;-68
2022/09/27 13:02:51;;;;;;;;;;;20.90;69.40;;;;;;4513380;31;20033;-68
2022/09/27 13:05:32;;;;;;;;;;;20.90;69.50;;;;;;4511947;31;20150;-68
2022/09/27 13:08:17;;;;;;;;;;;20.90;69.50;;;;;;4512636;31;20487;-68
2022/09/27 13:11:07;;;;;;;;;;;20.80;69.50;;;;;;4512766;31;20095;-68
2022/09/27 13:13:33;;;;;;;;;;;20.80;69.60;;;;;;4512505;31;20167;-68
2022/09/27 13:16:00;;;;;;;;;;;20.80;69.80;;;;;;4513716;31;20040;-67
2022/09/27 13:18:36;;;;;;;;;;;20.70;69.80;;;;;;4512129;31;20029;-68
2022/09/27 13:21:03;;;;;;;;;;;20.70;69.90;;;;;;4512882;31;20036;-69
2022/09/27 13:23:30;;;;;;;;;;;20.70;70.00;;;;;;4512578;31;20632;-67
2022/09/27 13:25:59;;;;;;;;;;;20.70;70.00;;;;;;4511645;31;20079;-65
2022/09/27 13:28:27;;;;;;;;;;;20.70;70.10;;;;;;4513170;31;20088;-67
2022/09/27 13:30:54;;;;;;;;;;;20.70;70.10;;;;;;4511259;31;20029;-67
2022/09/27 13:33:21;;;;;;;;;;;20.70;70.10;;;;;;4512964;31;20032;-67
2022/09/27 13:36:06;;;;;;;;;;;20.70;70.10;;;;;;4524382;31;20032;-66
2022/09/27 13:38:32;;;;;;;;;;;20.70;70.20;;;;;;4512291;31;20048;-66
2022/09/27 13:41:18;;;;;;;;;;;20.70;70.30;;;;;;4512532;31;20037;-67
2022/09/27 13:43:43;;;;;;;;;;;20.60;70.20;;;;;;4511883;31;20041;-67
2022/09/27 13:46:19;;;;;;;;;;;20.60;70.30;;;;;;4512897;31;20025;-67
2022/09/27 13:48:49;;;;;;;;;;;20.60;70.30;;;;;;4511706;31;20222;-67
2022/09/27 13:51:53;;;;;;;;;;;20.60;70.30;;;;;;4511745;31;20043;-66
2022/09/27 13:54:37;;;;;;;;;;;20.60;70.40;;;;;;4461946;32;20034;-67
2022/09/27 13:57:06;;;;;;;;;;;20.50;70.50;;;;;;4460534;32;20052;-67
2022/09/27 13:59:34;;;;;;;;;;;20.50;70.40;;;;;;4493461;31;20539;-67
2022/09/27 14:02:18;;;;;;;;;;;20.50;70.60;;;;;;4511606;31;20162;-69
2022/09/27 14:04:49;;;;;;;;;;;20.50;70.80;;;;;;4512066;31;20073;-68
2022/09/27 14:07:17;;;;;;;;;;;20.50;70.80;;;;;;4510693;31;20528;-67
2022/09/27 14:09:46;;;;;;;;;;;20.50;70.70;;;;;;4511129;31;20090;-69
2022/09/27 14:12:19;;;;;;;;;;;20.50;70.70;;;;;;4511137;31;20037;-68
2022/09/27 14:14:46;;;;;;;;;;;20.40;70.50;;;;;;4511907;31;20063;-68
2022/09/27 14:17:12;;;;;;;;;;;20.40;70.40;;;;;;4511660;31;20044;-68
2022/09/27 14:19:47;;;;;;;;;;;20.40;70.40;;;;;;4511933;31;20105;-68
2022/09/27 14:22:14;;;;;;;;;;;20.40;70.40;;;;;;4510327;31;20046;-68
2022/09/27 14:24:40;;;;;;;;;;;20.40;70.50;;;;;;4511865;31;20233;-69
2022/09/27 14:27:11;;;;;;;;;;;20.40;70.50;;;;;;4511999;31;20044;-68
2022/09/27 14:29:43;;;;;;;;;;;20.40;70.50;;;;;;4510995;31;20037;-68
2022/09/27 14:32:10;;;;;;;;;;;20.40;70.50;;;;;;4511375;31;20146;-68
2022/09/27 14:34:36;;;;;;;;;;;20.40;70.60;;;;;;4511916;31;20029;-67
2022/09/27 14:39:52;;;;;;;;;;;20.40;70.60;;;;;;4511651;31;20044;-67
2022/09/27 14:42:20;;;;;;;;;;;20.40;70.70;;;;;;4512419;31;20114;-70